Time;durP1;ratioP1;P1;durP2;ratioP2;P2;SDS_P1;SDS_P2;PMS_P1;PMS_P2;Temp;Humidity;BMP_temperature;BMP_pressure;BME280_temperature;BME280_humidity;BME280_pressure;Samples;Min_cycle;Max_cycle;Signal;HPM_P1;HPM_P2
2022/10/01 00:00:50;;;;;;;7.37;6.37;;;8.10;99.90;;;;;;4980526;28;20179;-88
2022/10/01 00:03:17;;;;;;;7.83;6.00;;;8.10;99.90;;;;;;4980528;28;20183;-88
2022/10/01 00:05:43;;;;;;;7.83;6.50;;;8.00;99.90;;;;;;4980581;28;20368;-88
2022/10/01 00:08:14;;;;;;;9.60;6.60;;;8.00;99.90;;;;;;4979936;28;20265;-88
2022/10/01 00:10:41;;;;;;;7.13;6.17;;;7.90;99.90;;;;;;4979564;28;20222;-88
2022/10/01 00:13:31;;;;;;;8.43;5.50;;;7.90;99.90;;;;;;4996285;28;20179;-89
2022/10/01 00:15:58;;;;;;;8.17;5.60;;;7.90;99.90;;;;;;4996333;28;20703;-88
2022/10/01 00:18:24;;;;;;;6.43;5.40;;;7.90;99.90;;;;;;4979990;28;20178;-88
2022/10/01 00:20:49;;;;;;;7.17;5.20;;;7.90;99.90;;;;;;4980196;28;20191;-88
2022/10/01 00:23:15;;;;;;;8.13;5.27;;;7.90;99.90;;;;;;4980034;28;20178;-88
2022/10/01 00:25:42;;;;;;;8.40;5.90;;;7.90;99.90;;;;;;4976708;28;20219;-88
2022/10/01 00:28:08;;;;;;;6.20;5.10;;;7.90;99.90;;;;;;5009239;28;20175;-88
2022/10/01 00:30:34;;;;;;;6.10;5.47;;;7.80;99.90;;;;;;4976854;28;20187;-88
2022/10/01 00:33:00;;;;;;;5.53;4.90;;;7.80;99.90;;;;;;4976986;28;20212;-88
2022/10/01 00:35:25;;;;;;;6.07;4.67;;;7.60;99.90;;;;;;4976847;28;20211;-88
2022/10/01 00:37:51;;;;;;;6.43;4.27;;;7.60;99.90;;;;;;4975656;28;20192;-88
2022/10/01 00:40:20;;;;;;;5.30;4.80;;;7.60;99.90;;;;;;4976709;28;20234;-88
2022/10/01 00:42:46;;;;;;;7.03;5.33;;;7.60;99.90;;;;;;5009081;28;20188;-88
2022/10/01 00:45:15;;;;;;;6.40;4.87;;;7.50;99.90;;;;;;5008989;28;20592;-88
2022/10/01 00:47:49;;;;;;;4.67;4.23;;;7.50;99.90;;;;;;5012265;28;20210;-88
2022/10/01 00:50:29;;;;;;;5.30;4.73;;;7.50;99.90;;;;;;4996028;28;20183;-88
2022/10/01 00:53:05;;;;;;;6.30;4.73;;;7.50;99.90;;;;;;4979866;28;20225;-88
2022/10/01 00:55:32;;;;;;;6.80;5.30;;;7.50;99.90;;;;;;4980114;28;20249;-88
2022/10/01 00:57:59;;;;;;;5.60;5.00;;;7.50;99.90;;;;;;4979336;28;20237;-88
2022/10/01 01:00:25;;;;;;;7.63;6.07;;;7.50;99.90;;;;;;4995866;28;20233;-88
2022/10/01 01:02:51;;;;;;;8.83;6.00;;;7.50;99.90;;;;;;4979582;28;20627;-88
2022/10/01 01:05:18;;;;;;;6.93;6.23;;;7.50;99.90;;;;;;4979742;28;20202;-88
2022/10/01 01:07:49;;;;;;;7.27;6.47;;;7.40;99.90;;;;;;4979161;28;20262;-88
2022/10/01 01:10:18;;;;;;;8.07;6.53;;;7.40;99.90;;;;;;4996018;28;20185;-88
2022/10/01 01:12:49;;;;;;;7.33;6.03;;;7.30;99.90;;;;;;4979911;28;20277;-88
2022/10/01 01:15:35;;;;;;;6.80;5.40;;;7.30;99.90;;;;;;4979456;28;20239;-88
2022/10/01 01:18:01;;;;;;;9.20;6.17;;;7.30;99.90;;;;;;5008780;28;20182;-88
2022/10/01 01:20:57;;;;;;;8.07;6.87;;;7.30;99.90;;;;;;4992093;28;20290;-88
2022/10/01 01:23:30;;;;;;;6.83;6.13;;;7.30;99.90;;;;;;4980174;28;20191;-89
2022/10/01 01:26:14;;;;;;;8.07;6.03;;;7.20;99.90;;;;;;4995932;28;20301;-88
2022/10/01 01:28:46;;;;;;;6.80;6.00;;;7.30;99.90;;;;;;4995822;28;20232;-88
2022/10/01 01:31:23;;;;;;;8.53;6.17;;;7.20;99.90;;;;;;4996721;28;20186;-88
2022/10/01 01:33:52;;;;;;;6.70;5.97;;;7.30;99.90;;;;;;4997327;28;20170;-88
2022/10/01 01:36:24;;;;;;;7.53;6.43;;;7.30;99.90;;;;;;4996078;28;20202;-88
2022/10/01 01:39:02;;;;;;;7.17;6.10;;;7.30;99.90;;;;;;4996501;28;20183;-88
2022/10/01 01:41:33;;;;;;;7.73;5.77;;;7.20;99.90;;;;;;4996186;28;20183;-88
2022/10/01 01:44:03;;;;;;;7.00;5.90;;;7.20;99.90;;;;;;4996020;28;20187;-88
2022/10/01 01:46:32;;;;;;;7.27;5.67;;;7.30;99.90;;;;;;5004555;28;20280;-88
2022/10/01 01:49:03;;;;;;;6.07;5.50;;;7.40;99.90;;;;;;4999278;28;20182;-88
2022/10/01 01:51:38;;;;;;;6.83;5.63;;;7.50;99.90;;;;;;4999553;28;20263;-87
2022/10/01 01:54:04;;;;;;;7.63;5.43;;;7.60;99.90;;;;;;4983062;28;20661;-88
2022/10/01 01:56:30;;;;;;;7.80;5.50;;;7.60;99.90;;;;;;4999081;28;20209;-88
2022/10/01 01:58:58;;;;;;;6.77;5.67;;;7.60;99.90;;;;;;4998988;28;20186;-88
2022/10/01 02:01:39;;;;;;;7.43;5.90;;;7.60;99.90;;;;;;4999028;28;20183;-88
2022/10/01 02:04:29;;;;;;;7.47;5.53;;;7.60;99.90;;;;;;4999102;28;20182;-88
2022/10/01 02:07:32;;;;;;;6.50;5.67;;;7.50;99.90;;;;;;4998485;28;20217;-88
2022/10/01 02:10:14;;;;;;;7.33;6.37;;;7.50;99.90;;;;;;4982824;28;20262;-88
2022/10/01 02:13:07;;;;;;;8.37;6.40;;;7.50;99.90;;;;;;4999009;28;20171;-88
2022/10/01 02:15:48;;;;;;;6.70;6.00;;;7.50;99.90;;;;;;4999712;28;20226;-88
2022/10/01 02:18:34;;;;;;;8.60;6.33;;;7.40;99.90;;;;;;4982721;28;20182;-87
2022/10/01 02:21:09;;;;;;;7.40;6.17;;;7.40;99.90;;;;;;4982301;28;20201;-88
2022/10/01 02:23:47;;;;;;;7.77;6.27;;;7.30;99.90;;;;;;4999114;28;20187;-88
2022/10/01 02:26:17;;;;;;;7.30;5.97;;;7.30;99.90;;;;;;4998653;28;20217;-88
2022/10/01 02:28:45;;;;;;;7.63;5.63;;;7.30;99.90;;;;;;4998442;28;20198;-88
2022/10/01 02:31:13;;;;;;;7.10;6.10;;;7.30;99.90;;;;;;4982688;28;20217;-88
2022/10/01 02:33:40;;;;;;;6.90;6.20;;;7.40;99.90;;;;;;4997668;28;20266;-88
2022/10/01 02:36:08;;;;;;;9.27;6.73;;;7.30;99.90;;;;;;4998696;28;20197;-88
2022/10/01 02:38:37;;;;;;;11.30;7.80;;;7.30;99.90;;;;;;4998098;28;20186;-87
2022/10/01 02:41:06;;;;;;;10.00;6.70;;;7.30;99.90;;;;;;4998558;28;20194;-88
2022/10/01 02:43:38;;;;;;;7.40;6.60;;;7.30;99.90;;;;;;4998354;28;20182;-88
2022/10/01 02:46:16;;;;;;;8.37;6.27;;;7.20;99.90;;;;;;4992802;28;20223;-88
2022/10/01 02:48:45;;;;;;;8.60;6.63;;;7.20;99.90;;;;;;5000983;28;20182;-88
2022/10/01 02:51:32;;;;;;;7.47;5.90;;;7.30;99.90;;;;;;4981701;28;20190;-88
2022/10/01 02:54:14;;;;;;;7.30;5.80;;;7.40;99.90;;;;;;4998056;28;20194;-88
2022/10/01 02:59:25;;;;;;;8.53;6.00;;;7.40;99.90;;;;;;5029438;28;20254;-88
2022/10/01 03:01:51;;;;;;;7.63;6.20;;;7.50;99.90;;;;;;4981026;28;20190;-88
2022/10/01 03:04:18;;;;;;;7.27;6.37;;;7.60;99.90;;;;;;4997961;28;20218;-87
2022/10/01 03:06:44;;;;;;;7.07;6.23;;;7.50;99.90;;;;;;4981378;28;20221;-88
2022/10/01 03:09:11;;;;;;;6.67;5.53;;;7.50;99.90;;;;;;4981571;28;20209;-88
2022/10/01 03:11:37;;;;;;;7.00;6.30;;;7.40;99.90;;;;;;4997795;28;20182;-88
2022/10/01 03:14:14;;;;;;;6.47;5.77;;;7.50;99.90;;;;;;4997380;28;20187;-88
2022/10/01 03:16:40;;;;;;;7.43;6.13;;;7.60;99.90;;;;;;4981145;28;20203;-89
2022/10/01 03:19:06;;;;;;;7.27;5.43;;;7.60;99.90;;;;;;4997545;28;20196;-88
2022/10/01 03:21:31;;;;;;;6.90;5.53;;;7.60;99.90;;;;;;4997717;28;20220;-88
2022/10/01 03:23:57;;;;;;;6.53;5.90;;;7.60;99.90;;;;;;4997819;28;20190;-88
2022/10/01 03:26:23;;;;;;;8.03;5.37;;;7.60;99.90;;;;;;4981052;28;20207;-88
2022/10/01 03:28:49;;;;;;;7.30;6.50;;;7.60;99.90;;;;;;4981045;28;20186;-88
2022/10/01 03:31:15;;;;;;;7.63;6.53;;;7.50;99.90;;;;;;4997497;28;20183;-88
2022/10/01 03:33:41;;;;;;;7.07;5.90;;;7.50;99.90;;;;;;4997632;28;20227;-88
2022/10/01 03:36:07;;;;;;;10.87;6.43;;;7.40;99.90;;;;;;4981179;28;20211;-88
2022/10/01 03:38:33;;;;;;;7.10;5.90;;;7.40;99.90;;;;;;4977410;28;20181;-88
2022/10/01 03:40:58;;;;;;;6.50;5.83;;;7.40;99.90;;;;;;4993843;28;20218;-88
2022/10/01 03:43:27;;;;;;;6.70;5.97;;;7.40;99.90;;;;;;4980750;28;20182;-88
2022/10/01 03:45:55;;;;;;;6.77;5.27;;;7.40;99.90;;;;;;4980538;28;20226;-88
2022/10/01 03:48:22;;;;;;;6.57;5.63;;;7.40;99.90;;;;;;4996902;28;20172;-88
2022/10/01 03:50:56;;;;;;;5.53;5.00;;;7.40;99.90;;;;;;4980704;28;20198;-88
2022/10/01 03:53:23;;;;;;;7.93;5.37;;;7.50;99.90;;;;;;4980731;28;20660;-88
2022/10/01 03:55:49;;;;;;;7.00;5.30;;;7.50;99.90;;;;;;4980695;28;20202;-87
2022/10/01 03:58:17;;;;;;;6.60;5.70;;;7.50;99.90;;;;;;4980736;28;20194;-88
2022/10/01 04:00:50;;;;;;;8.93;6.30;;;7.50;99.90;;;;;;4979790;28;20179;-87
2022/10/01 04:03:17;;;;;;;6.00;5.40;;;7.40;99.90;;;;;;5013454;28;20256;-87
2022/10/01 04:05:44;;;;;;;8.37;6.03;;;7.40;99.90;;;;;;4979524;28;20230;-88
2022/10/01 04:08:11;;;;;;;6.73;5.23;;;7.50;99.90;;;;;;4980045;28;20226;-88
2022/10/01 04:10:37;;;;;;;6.87;5.50;;;7.40;99.90;;;;;;4980714;28;20254;-88
2022/10/01 04:13:04;;;;;;;5.90;5.17;;;7.40;99.90;;;;;;4980256;28;20209;-88
2022/10/01 04:15:31;;;;;;;7.67;6.00;;;7.30;99.90;;;;;;4980272;28;20204;-88
2022/10/01 04:17:58;;;;;;;7.30;5.33;;;7.40;99.90;;;;;;4980288;28;20189;-88
2022/10/01 04:20:24;;;;;;;7.13;5.23;;;7.30;99.90;;;;;;4980240;28;20193;-88
2022/10/01 04:22:50;;;;;;;6.43;5.30;;;7.40;99.90;;;;;;4980272;28;20183;-88
2022/10/01 04:25:17;;;;;;;5.83;5.23;;;7.40;99.90;;;;;;4996668;28;20207;-88
2022/10/01 04:27:55;;;;;;;6.03;4.83;;;7.50;99.90;;;;;;4979807;28;20183;-88
2022/10/01 04:30:21;;;;;;;6.20;4.57;;;7.60;99.90;;;;;;4979944;28;20181;-88
2022/10/01 04:32:47;;;;;;;5.30;4.80;;;7.60;99.90;;;;;;4980115;28;20182;-88
2022/10/01 04:35:18;;;;;;;4.77;4.27;;;7.70;99.90;;;;;;4979748;28;20260;-88
2022/10/01 04:37:45;;;;;;;5.43;3.83;;;7.70;99.90;;;;;;4979722;28;20183;-87
2022/10/01 04:40:11;;;;;;;5.30;3.90;;;7.80;99.90;;;;;;4980007;28;20188;-87
2022/10/01 04:42:42;;;;;;;4.20;3.70;;;7.80;99.90;;;;;;4981191;28;20175;-88
2022/10/01 04:45:09;;;;;;;4.00;3.43;;;7.80;99.90;;;;;;4995799;28;20221;-88
2022/10/01 04:48:18;;;;;;;4.73;3.83;;;7.80;99.90;;;;;;4979224;28;20214;-88
2022/10/01 04:50:44;;;;;;;5.00;3.50;;;7.90;99.90;;;;;;4979718;28;20627;-88
2022/10/01 04:53:10;;;;;;;5.17;4.67;;;8.00;99.90;;;;;;5012484;28;20183;-88
2022/10/01 04:55:36;;;;;;;3.10;2.10;;;8.10;99.90;;;;;;4995444;28;20199;-87
2022/10/01 04:58:02;;;;;;;2.20;2.00;;;8.20;99.90;;;;;;4995212;28;20183;-88
2022/10/01 05:00:33;;;;;;;2.33;2.00;;;8.30;99.90;;;;;;4979599;28;20187;-88
2022/10/01 05:03:00;;;;;;;3.77;2.00;;;8.40;99.90;;;;;;5012035;28;20186;-87
2022/10/01 05:05:28;;;;;;;2.70;2.07;;;8.40;99.90;;;;;;4979397;28;20231;-88
2022/10/01 05:07:54;;;;;;;1.90;1.80;;;8.50;99.90;;;;;;4979143;28;20190;-87
2022/10/01 05:10:21;;;;;;;2.30;1.97;;;8.60;99.90;;;;;;5011994;28;20179;-87
2022/10/01 05:12:48;;;;;;;3.30;1.73;;;8.70;99.90;;;;;;5012040;28;20179;-87
2022/10/01 05:15:15;;;;;;;1.90;1.70;;;8.80;99.90;;;;;;4979100;28;20206;-87
2022/10/01 05:17:41;;;;;;;2.33;2.10;;;8.90;99.90;;;;;;4978990;28;20249;-87
2022/10/01 05:20:14;;;;;;;2.20;2.00;;;9.10;99.90;;;;;;4979424;28;20179;-87
2022/10/01 05:22:40;;;;;;;2.97;1.80;;;9.20;99.90;;;;;;5011965;28;20286;-88
2022/10/01 05:25:06;;;;;;;3.10;1.70;;;9.20;99.90;;;;;;5012010;28;20183;-87
2022/10/01 05:27:36;;;;;;;1.63;1.50;;;9.30;99.90;;;;;;5011840;28;20294;-88
2022/10/01 05:30:04;;;;;;;4.23;1.40;;;9.30;99.90;;;;;;5011846;28;20222;-88
2022/10/01 05:32:30;;;;;;;1.80;1.70;;;9.40;99.90;;;;;;5018478;28;20179;-87
2022/10/01 05:34:56;;;;;;;1.80;1.53;;;9.50;99.90;;;;;;5011393;28;20229;-88
2022/10/01 05:37:23;;;;;;;2.30;1.67;;;9.50;99.90;;;;;;4992465;28;20183;-88
2022/10/01 05:39:49;;;;;;;2.23;1.90;;;9.50;99.90;;;;;;5047888;28;20221;-83
2022/10/01 05:42:14;;;;;;;2.30;1.90;;;9.50;99.90;;;;;;4983104;28;20206;-88
2022/10/01 05:44:44;;;;;;;2.10;1.90;;;9.50;99.90;;;;;;4979608;28;20277;-88
2022/10/01 05:47:12;;;;;;;2.40;1.90;;;9.50;99.90;;;;;;4978693;28;20195;-88
2022/10/01 05:49:41;;;;;;;1.73;1.63;;;9.60;99.90;;;;;;4983011;28;20179;-88
2022/10/01 05:52:09;;;;;;;2.33;1.60;;;9.60;99.90;;;;;;5031641;28;20183;-88
2022/10/01 05:54:36;;;;;;;2.00;1.90;;;9.60;99.90;;;;;;4998642;28;20233;-88
2022/10/01 05:57:02;;;;;;;3.83;1.87;;;9.60;99.90;;;;;;5031138;28;20206;-88
2022/10/01 05:59:28;;;;;;;2.10;1.80;;;9.60;99.90;;;;;;5031216;28;20205;-87
2022/10/01 06:01:55;;;;;;;2.60;2.10;;;9.60;99.90;;;;;;5011442;28;20205;-88
2022/10/01 06:04:33;;;;;;;3.57;1.77;;;9.70;99.90;;;;;;5011593;28;20187;-88
2022/10/01 06:07:00;;;;;;;5.67;2.23;;;9.70;99.90;;;;;;5011242;28;20211;-88
2022/10/01 06:09:26;;;;;;;2.63;2.40;;;9.70;99.90;;;;;;4999362;28;20186;-88
2022/10/01 06:12:33;;;;;;;2.30;2.10;;;9.70;99.90;;;;;;4998523;28;20183;-88
2022/10/01 06:14:59;;;;;;;2.60;2.40;;;9.80;99.90;;;;;;5015195;28;20181;-88
2022/10/01 06:17:24;;;;;;;5.07;3.03;;;9.80;99.90;;;;;;5001960;28;20187;-88
2022/10/01 06:19:50;;;;;;;5.33;4.50;;;9.90;99.90;;;;;;4999043;28;20226;-88
2022/10/01 06:22:17;;;;;;;3.60;3.30;;;9.90;99.90;;;;;;4999078;28;20201;-88
2022/10/01 06:24:43;;;;;;;2.70;2.20;;;10.00;99.90;;;;;;4998507;28;20183;-87
2022/10/01 06:27:10;;;;;;;3.67;1.90;;;10.00;99.90;;;;;;4998274;28;20265;-88
2022/10/01 06:29:36;;;;;;;2.07;1.80;;;10.10;99.90;;;;;;4998573;28;20620;-87
2022/10/01 06:32:02;;;;;;;2.97;1.87;;;10.10;99.90;;;;;;4998649;28;20179;-88
2022/10/01 06:34:28;;;;;;;2.03;1.50;;;10.10;99.90;;;;;;4998521;28;20187;-88
2022/10/01 06:36:54;;;;;;;1.77;1.60;;;10.10;99.90;;;;;;4998132;28;20210;-88
2022/10/01 06:39:20;;;;;;;2.30;1.97;;;10.10;99.90;;;;;;4998337;28;20647;-87
2022/10/01 06:41:47;;;;;;;1.57;1.30;;;10.20;99.90;;;;;;4998282;28;20651;-88
2022/10/01 06:44:14;;;;;;;1.50;1.40;;;10.20;99.90;;;;;;4998412;28;20179;-88
2022/10/01 06:46:39;;;;;;;2.73;1.60;;;10.20;99.90;;;;;;4997925;28;20214;-88
2022/10/01 06:49:05;;;;;;;2.40;1.60;;;10.20;99.90;;;;;;4998227;28;20237;-88
2022/10/01 06:54:17;;;;;;;5.23;1.40;;;10.20;99.90;;;;;;5030724;28;20163;-88
2022/10/01 06:56:43;;;;;;;2.13;1.50;;;10.20;99.90;;;;;;4998017;28;20198;-87
2022/10/01 06:59:09;;;;;;;1.67;1.53;;;10.30;99.90;;;;;;5000841;28;20247;-88
2022/10/01 07:01:35;;;;;;;1.40;1.30;;;10.30;99.90;;;;;;4998129;28;20266;-87
2022/10/01 07:04:01;;;;;;;2.33;1.60;;;10.40;99.90;;;;;;4998029;28;20206;-87
2022/10/01 07:06:27;;;;;;;2.70;1.83;;;10.40;99.90;;;;;;4997993;28;20294;-87
2022/10/01 07:08:53;;;;;;;2.60;1.60;;;10.50;99.90;;;;;;4997789;28;20274;-88
2022/10/01 07:11:19;;;;;;;1.97;1.30;;;10.50;99.90;;;;;;4997869;28;20190;-90
2022/10/01 07:13:45;;;;;;;1.43;1.33;;;10.50;99.90;;;;;;4997748;28;20182;-88
2022/10/01 07:16:11;;;;;;;1.47;1.37;;;10.60;99.90;;;;;;4991351;28;20208;-88
2022/10/01 07:18:37;;;;;;;1.73;1.40;;;10.60;99.90;;;;;;4978146;28;20180;-88
2022/10/01 07:21:03;;;;;;;1.70;1.50;;;10.70;99.90;;;;;;4994179;28;20200;-87
2022/10/01 07:23:35;;;;;;;2.30;1.67;;;10.70;99.90;;;;;;4994217;28;20205;-88
2022/10/01 07:26:04;;;;;;;1.93;1.50;;;10.80;99.90;;;;;;4994049;28;20216;-88
2022/10/01 07:28:30;;;;;;;4.50;1.50;;;10.80;99.90;;;;;;4994235;28;20177;-88
2022/10/01 07:31:03;;;;;;;2.97;1.40;;;10.80;99.90;;;;;;4993374;28;20284;-88
2022/10/01 07:33:29;;;;;;;1.83;1.40;;;10.80;99.90;;;;;;4993406;28;20647;-87
2022/10/01 07:36:00;;;;;;;1.80;1.60;;;10.90;99.90;;;;;;4993935;28;20291;-88
2022/10/01 07:38:26;;;;;;;1.63;1.20;;;10.90;99.90;;;;;;4994026;28;20246;-88
2022/10/01 07:40:53;;;;;;;1.40;1.30;;;10.90;99.90;;;;;;4994006;28;20184;-87
2022/10/01 07:43:19;;;;;;;2.53;1.40;;;10.90;99.90;;;;;;4993795;28;20191;-88
2022/10/01 07:45:48;;;;;;;2.17;1.23;;;10.90;99.90;;;;;;4980683;28;20215;-88
2022/10/01 07:48:14;;;;;;;1.63;1.50;;;11.00;99.90;;;;;;4997222;28;20179;-88
2022/10/01 07:50:46;;;;;;;1.83;1.20;;;11.00;99.90;;;;;;4996827;28;20266;-88
2022/10/01 07:53:12;;;;;;;1.57;1.40;;;11.00;99.90;;;;;;4997021;28;20184;-88
2022/10/01 07:55:38;;;;;;;1.40;1.30;;;11.00;99.90;;;;;;4996764;28;20198;-88
2022/10/01 07:58:04;;;;;;;2.00;1.20;;;11.00;99.90;;;;;;4980697;28;20183;-88
2022/10/01 08:00:32;;;;;;;1.67;1.00;;;11.00;99.90;;;;;;4997040;28;20188;-88
2022/10/01 08:02:58;;;;;;;1.80;1.00;;;11.10;99.90;;;;;;4996780;28;20273;-87
2022/10/01 08:05:31;;;;;;;2.50;1.20;;;11.10;99.90;;;;;;4996603;28;20204;-88
2022/10/01 08:07:59;;;;;;;1.57;1.10;;;11.10;99.90;;;;;;4996538;28;20666;-88
2022/10/01 08:10:25;;;;;;;3.93;1.20;;;11.10;99.90;;;;;;4997087;28;20178;-88
2022/10/01 08:13:00;;;;;;;1.67;1.13;;;11.10;99.90;;;;;;4996519;28;20168;-87
2022/10/01 08:15:26;;;;;;;1.37;1.23;;;11.10;99.90;;;;;;4996222;28;20269;-87
2022/10/01 08:17:51;;;;;;;2.13;1.40;;;11.10;99.90;;;;;;4993084;28;20177;-87
2022/10/01 08:20:18;;;;;;;2.97;1.23;;;11.20;99.90;;;;;;4993133;28;20184;-88
2022/10/01 08:22:44;;;;;;;1.87;1.50;;;11.20;99.90;;;;;;4993445;28;20175;-88
2022/10/01 08:25:10;;;;;;;2.77;1.50;;;11.20;99.90;;;;;;4977218;28;20263;-88
2022/10/01 08:27:36;;;;;;;1.97;1.30;;;11.20;99.90;;;;;;4993224;28;20203;-88
2022/10/01 08:30:02;;;;;;;2.07;1.80;;;11.20;99.90;;;;;;4977016;28;20717;-88
2022/10/01 08:32:29;;;;;;;2.27;1.50;;;11.20;99.90;;;;;;4992219;28;20275;-88
2022/10/01 08:34:56;;;;;;;1.60;1.50;;;11.20;99.90;;;;;;4992788;28;20187;-88
2022/10/01 08:37:26;;;;;;;2.13;1.30;;;11.10;99.90;;;;;;4976119;28;20184;-88
2022/10/01 08:39:53;;;;;;;1.33;1.23;;;11.10;99.90;;;;;;4992368;28;20180;-88
2022/10/01 08:42:41;;;;;;;1.80;1.30;;;11.10;99.90;;;;;;4992543;28;20277;-87
2022/10/01 08:45:27;;;;;;;2.30;1.50;;;11.10;99.90;;;;;;5008945;28;20234;-88
2022/10/01 08:48:35;;;;;;;1.87;1.30;;;11.10;99.90;;;;;;4984461;28;20242;-88
2022/10/01 08:51:21;;;;;;;1.87;1.40;;;11.10;99.90;;;;;;4984377;28;20199;-88
2022/10/01 08:54:11;;;;;;;1.63;1.50;;;11.20;99.90;;;;;;4972995;28;20192;-88
2022/10/01 08:56:44;;;;;;;2.53;1.30;;;11.20;99.90;;;;;;4972633;28;20211;-88
2022/10/01 08:59:41;;;;;;;1.47;1.37;;;11.20;99.90;;;;;;4976611;28;20178;-88
2022/10/01 09:02:24;;;;;;;2.53;1.50;;;11.20;99.90;;;;;;4956341;28;20195;-88
2022/10/01 09:04:57;;;;;;;1.57;1.20;;;11.20;99.90;;;;;;4992881;28;20230;-87
2022/10/01 09:07:40;;;;;;;2.73;1.80;;;11.20;99.90;;;;;;4975953;28;20287;-88
2022/10/01 09:10:40;;;;;;;1.30;1.20;;;11.30;99.90;;;;;;4992885;28;20271;-87
2022/10/01 09:13:09;;;;;;;1.73;1.40;;;11.30;99.90;;;;;;4992480;28;20180;-87
2022/10/01 09:15:54;;;;;;;2.57;1.23;;;11.30;99.90;;;;;;4992179;28;20201;-87
2022/10/01 09:18:41;;;;;;;3.07;1.40;;;11.40;99.90;;;;;;4992164;28;20177;-88
2022/10/01 09:21:19;;;;;;;2.07;1.30;;;11.40;99.90;;;;;;4992360;28;20196;-87
2022/10/01 09:24:02;;;;;;;1.20;1.10;;;11.40;99.90;;;;;;4992752;28;20176;-87
2022/10/01 09:26:28;;;;;;;1.40;1.13;;;11.50;99.90;;;;;;4976397;28;20216;-87
2022/10/01 09:29:01;;;;;;;1.80;1.27;;;11.50;99.90;;;;;;4997093;28;20184;-86
2022/10/01 09:31:35;;;;;;;1.30;1.20;;;11.50;99.90;;;;;;5031691;28;20699;-87
2022/10/01 09:34:34;;;;;;;1.73;1.47;;;11.50;99.90;;;;;;4990599;28;20179;-87
2022/10/01 09:37:28;;;;;;;1.63;1.40;;;11.50;99.90;;;;;;4989947;28;20211;-87
2022/10/01 09:39:55;;;;;;;1.87;1.30;;;11.50;99.90;;;;;;4979503;28;20181;-87
2022/10/01 09:42:26;;;;;;;1.40;1.20;;;11.50;99.90;;;;;;5017315;28;20179;-87
2022/10/01 09:44:53;;;;;;;2.23;1.70;;;11.50;99.90;;;;;;5028035;28;20711;-87
2022/10/01 09:47:32;;;;;;;1.90;1.30;;;11.50;99.90;;;;;;4982885;28;20223;-87
2022/10/01 09:50:02;;;;;;;1.77;1.50;;;11.50;99.90;;;;;;4982999;28;20176;-87
2022/10/01 09:52:37;;;;;;;4.00;1.40;;;11.50;99.90;;;;;;5015643;28;20174;-87
2022/10/01 09:58:33;;;;;;;2.27;1.20;;;11.50;99.90;;;;;;5003650;28;20177;-87
2022/10/01 10:01:00;;;;;;;3.37;1.70;;;11.50;99.90;;;;;;4983144;28;20180;-87
2022/10/01 10:03:29;;;;;;;1.47;1.37;;;11.50;99.90;;;;;;4999203;28;20183;-88
2022/10/01 10:05:58;;;;;;;1.40;1.30;;;11.50;99.90;;;;;;5018472;28;20718;-88
2022/10/01 10:08:32;;;;;;;1.30;1.20;;;11.40;99.90;;;;;;4982470;28;20265;-88
2022/10/01 10:11:07;;;;;;;3.00;1.40;;;11.40;99.90;;;;;;5002271;28;20178;-88
2022/10/01 10:13:39;;;;;;;1.77;1.37;;;11.30;99.90;;;;;;4998877;28;20622;-88
2022/10/01 10:16:27;;;;;;;2.47;1.40;;;11.30;99.90;;;;;;5015113;28;20199;-87
2022/10/01 10:19:02;;;;;;;2.87;1.67;;;11.20;99.90;;;;;;4998447;28;20176;-88
2022/10/01 10:21:36;;;;;;;1.57;1.40;;;11.20;99.90;;;;;;4998396;28;20192;-88
2022/10/01 10:24:29;;;;;;;2.10;1.57;;;11.10;99.90;;;;;;4981873;28;21297;-88
2022/10/01 10:26:58;;;;;;;1.60;1.50;;;11.10;99.90;;;;;;5014415;28;20675;-88
2022/10/01 10:29:29;;;;;;;2.37;1.70;;;11.10;99.90;;;;;;4982081;28;20181;-88
2022/10/01 10:31:56;;;;;;;4.30;2.37;;;11.10;99.90;;;;;;4998781;28;20176;-88
2022/10/01 10:34:37;;;;;;;3.23;2.07;;;11.10;99.90;;;;;;4981688;28;20254;-87
2022/10/01 10:37:10;;;;;;;2.93;2.23;;;11.10;99.90;;;;;;4989078;28;20254;-87
2022/10/01 10:39:40;;;;;;;3.83;2.23;;;11.10;99.90;;;;;;4998228;28;20172;-87
2022/10/01 10:42:07;;;;;;;3.93;2.20;;;11.10;99.90;;;;;;4981886;28;20279;-88
2022/10/01 10:44:53;;;;;;;2.07;1.60;;;11.20;99.90;;;;;;5001416;28;20182;-87
2022/10/01 10:47:21;;;;;;;2.97;1.67;;;11.20;99.90;;;;;;5034597;28;20212;-88
2022/10/01 10:49:48;;;;;;;2.90;2.10;;;11.30;99.90;;;;;;5034091;28;20176;-88
2022/10/01 10:52:35;;;;;;;3.07;1.60;;;11.40;99.90;;;;;;5017812;28;20171;-88
2022/10/01 10:55:20;;;;;;;10.33;7.33;;;11.40;99.90;;;;;;5028443;28;20175;-87
2022/10/01 10:57:46;;;;;;;3.60;2.43;;;11.50;99.90;;;;;;4994594;28;20165;-87
2022/10/01 11:00:17;;;;;;;2.20;1.87;;;11.60;99.90;;;;;;4978333;28;20188;-87
2022/10/01 11:02:55;;;;;;;1.67;1.53;;;11.60;99.90;;;;;;5008738;28;20184;-87
2022/10/01 11:05:28;;;;;;;1.73;1.30;;;11.70;99.90;;;;;;5028528;28;20202;-88
2022/10/01 11:07:59;;;;;;;2.50;1.60;;;11.70;99.90;;;;;;4981647;28;20210;-88
2022/10/01 11:10:35;;;;;;;1.57;1.27;;;11.70;99.90;;;;;;4981938;28;20172;-87
2022/10/01 11:13:31;;;;;;;1.70;1.50;;;11.80;99.90;;;;;;4981609;28;21238;-88
2022/10/01 11:16:02;;;;;;;5.93;1.83;;;11.90;99.90;;;;;;4990905;28;20200;-88
2022/10/01 11:18:47;;;;;;;2.97;1.37;;;11.90;99.90;;;;;;4990207;28;20333;-88
2022/10/01 11:21:21;;;;;;;1.47;1.20;;;11.90;99.90;;;;;;5003053;28;20179;-88
2022/10/01 11:23:56;;;;;;;1.03;1.00;;;11.90;99.90;;;;;;5029986;28;20179;-88
2022/10/01 11:26:55;;;;;;;1.77;1.20;;;11.90;99.90;;;;;;4998144;28;20674;-88
2022/10/01 11:29:30;;;;;;;2.23;1.20;;;11.90;99.90;;;;;;4997633;28;20177;-88
2022/10/01 11:32:30;;;;;;;1.43;1.33;;;11.90;99.90;;;;;;5004530;28;20211;-76
2022/10/01 11:35:15;;;;;;;1.53;1.27;;;11.90;99.90;;;;;;4994449;28;20229;-88
2022/10/01 11:37:57;;;;;;;1.87;1.07;;;12.00;99.90;;;;;;4980242;28;20192;-86
2022/10/01 11:40:38;;;;;;;3.70;1.20;;;12.00;99.90;;;;;;4997083;28;20185;-86
2022/10/01 11:43:17;;;;;;;1.33;1.07;;;12.00;99.90;;;;;;4980950;28;20269;-86
2022/10/01 11:45:49;;;;;;;1.00;0.90;;;12.10;99.90;;;;;;4996624;28;20283;-86
2022/10/01 11:48:18;;;;;;;1.30;1.20;;;12.20;99.90;;;;;;4996705;28;20307;-87
2022/10/01 11:50:47;;;;;;;1.27;1.13;;;12.20;99.90;;;;;;4997180;28;20193;-86
2022/10/01 11:53:21;;;;;;;2.80;1.40;;;12.30;99.90;;;;;;4979954;28;20178;-86
2022/10/01 11:59:04;;;;;;;1.90;1.40;;;12.30;99.90;;;;;;4994309;28;20190;-87
2022/10/01 12:01:42;;;;;;;1.40;1.30;;;12.30;99.90;;;;;;4977070;28;20183;-87
2022/10/01 12:04:26;;;;;;;1.77;1.67;;;12.30;99.90;;;;;;5010085;28;20164;-87
2022/10/01 12:07:25;;;;;;;1.33;1.23;;;12.30;99.90;;;;;;5007988;28;20216;-87
2022/10/01 12:09:51;;;;;;;0.90;0.90;;;12.40;99.90;;;;;;4978007;28;20184;-87
2022/10/01 12:12:29;;;;;;;2.70;1.20;;;12.40;99.90;;;;;;4977411;28;20186;-86
2022/10/01 12:15:00;;;;;;;1.40;1.07;;;12.40;99.90;;;;;;4993568;28;20171;-87
2022/10/01 12:17:54;;;;;;;1.50;1.30;;;12.50;99.90;;;;;;4980195;28;20202;-87
2022/10/01 12:20:30;;;;;;;1.40;1.30;;;12.60;99.90;;;;;;4996202;28;20186;-87
2022/10/01 12:22:58;;;;;;;1.40;1.30;;;12.60;99.90;;;;;;4980460;28;20308;-87
2022/10/01 12:26:10;;;;;;;1.43;1.33;;;12.70;99.90;;;;;;4995711;28;20205;-86
2022/10/01 12:28:58;;;;;;;2.47;1.83;;;12.80;99.90;;;;;;5025677;28;20176;-86
2022/10/01 12:31:35;;;;;;;2.20;1.93;;;12.90;99.90;;;;;;5007761;28;20180;-86
2022/10/01 12:34:32;;;;;;;1.40;1.13;;;13.00;99.90;;;;;;5032784;28;20184;-86
2022/10/01 12:37:16;;;;;;;2.07;1.50;;;13.00;99.90;;;;;;4976789;28;20206;-86
2022/10/01 12:39:56;;;;;;;1.83;1.67;;;13.20;99.90;;;;;;5012838;28;20249;-86
2022/10/01 12:43:03;;;;;;;1.77;1.67;;;13.30;99.90;;;;;;5012973;28;20183;-86
2022/10/01 12:45:38;;;;;;;1.30;1.10;;;13.40;99.90;;;;;;4987902;28;20602;-86
2022/10/01 12:48:19;;;;;;;1.27;1.17;;;13.50;99.90;;;;;;5005116;28;20178;-86
2022/10/01 12:50:48;;;;;;;1.57;1.07;;;13.60;99.90;;;;;;4977001;28;20220;-86
2022/10/01 12:53:59;;;;;;;1.30;0.83;;;13.70;99.90;;;;;;4979174;28;20233;-86
2022/10/01 12:56:44;;;;;;;1.27;1.17;;;13.70;99.90;;;;;;5021973;28;20214;-86
2022/10/01 12:59:50;;;;;;;0.97;0.87;;;13.80;99.90;;;;;;4995606;28;20190;-87
2022/10/01 13:02:48;;;;;;;2.03;1.20;;;13.80;99.90;;;;;;5012393;28;20182;-87
2022/10/01 13:05:46;;;;;;;1.00;0.90;;;13.90;99.90;;;;;;4992549;28;20286;-87
2022/10/01 13:08:15;;;;;;;1.47;1.20;;;14.00;99.90;;;;;;4992664;28;20180;-87
2022/10/01 13:11:19;;;;;;;2.13;1.00;;;14.20;99.90;;;;;;5041119;28;20178;-87
2022/10/01 13:13:52;;;;;;;3.43;1.60;;;14.30;99.90;;;;;;4992877;28;20219;-87
2022/10/01 13:16:31;;;;;;;1.67;1.10;;;14.50;99.90;;;;;;4991948;28;20302;-87
2022/10/01 13:19:18;;;;;;;1.40;1.20;;;14.70;99.90;;;;;;4995119;28;20521;-87
2022/10/01 13:22:17;;;;;;;1.07;0.80;;;14.90;99.90;;;;;;5012080;28;20191;-86
2022/10/01 13:24:59;;;;;;;1.30;1.13;;;14.80;99.90;;;;;;4980812;28;20186;-87
2022/10/01 13:27:37;;;;;;;1.33;1.00;;;14.70;99.90;;;;;;4992398;28;20221;-86
2022/10/01 13:30:14;;;;;;;1.77;1.20;;;14.70;99.90;;;;;;5014132;28;20174;-87
2022/10/01 13:32:52;;;;;;;1.63;1.23;;;14.70;99.90;;;;;;5048652;28;20182;-87